Metar Cercanos

 

LEPA - Palma De Mallorc, Spain
Distance from station: ONO 38km
Actualización: Sun, 19-May-2024 2:00pm CEST
Parcialmente nuboso
Parcialmente nuboso
 Viento del SO
Viento: SO 17 km/h
Temperatura: 23°C
Rocío: 16°C
Humedad: 65%
Barómetro: 1009 hPa
Clouds: Parcialmente nuboso
Visibility: 10 km
Cloud details: Parcialmente nuboso 914 m
2024/05/19 12:00 LEPA 191200Z 22009KT 9999 SCT030 23/16 Q1009 NOSIG
LEMH - Mahon/Menorca Is, Spain
Distance from station: ENE 105km
Actualización: Sun, 19-May-2024 2:00pm CEST
Parcialmente nuboso
Parcialmente nuboso
 Viento del ENE
Viento: ENE 11 km/h
Temperatura: 22°C
Rocío: 13°C
Humedad: 57%
Barómetro: 1010 hPa
Clouds: Parcialmente nuboso
Visibility: 10 km
Cloud details: Few Clouds 823 m
Parcialmente nuboso 1067 m
2024/05/19 12:00 LEMH 191200Z 07006KT 010V180 9999 FEW027 SCT035 22/13 Q1010
 
LEIB - Ibiza/Es Codola, Spain
Distance from station: OSO 165km
Actualización: Sun, 19-May-2024 2:00pm CEST
Muy nuboso
Muy nuboso
 Viento del S
Viento: S 13 km/h
Temperatura: 22°C
Rocío: 16°C
Humedad: 69%
Barómetro: 1010 hPa
Clouds: Muy nuboso
Visibility: 10 km
Cloud details: Muy nuboso 762 m
2024/05/19 12:00 LEIB 191200Z 19007KT 150V240 9999 BKN025 22/16 Q1010 NOSIG
LEBL - Barcelona Airpor, Spain
Distance from station: NNO 225km
Actualización: Sun, 19-May-2024 2:00pm CEST
Few Clouds
Few Clouds
 Viento del ESE
Viento: ESE 17 km/h
Temperatura: 19°C
Rocío: 15°C
Humedad: 78%
Barómetro: 1010 hPa
Clouds: Few Clouds
Visibility: 10 km
Cloud details: Few Clouds 610 m
2024/05/19 12:00 LEBL 191200Z 12009KT 090V150 9999 FEW020 19/15 Q1010 NOSIG
 
LEVC - Valencia (civ/Mi, Spain
Distance from station: NO 188km
Actualización: Sun, 19-May-2024 2:00pm CEST
Few Clouds
Few Clouds
 Viento del E
Viento: E 15 km/h
Temperatura: 23°C
Rocío: 12°C
Humedad: 50%
Barómetro: 1009 hPa
Clouds: Few Clouds
Visibility: 10 km
Cloud details: Few Clouds 914 m
2024/05/19 12:00 LEVC 191200Z 08008KT 030V150 9999 FEW030 23/12 Q1009 NOSIG
LEGE - Gerona/Costa Bra, Spain
Distance from station: N 276km
Actualización: Sun, 19-May-2024 2:00pm CEST
Few Clouds
Few Clouds
 Viento del S
Viento: S 9 km/h
Temperatura: 22°C
Rocío: 12°C
Humedad: 53%
Barómetro: 1010 hPa
Clouds: Few Clouds
Visibility: 10 km
Cloud details: Few Clouds 1219 m
2024/05/19 12:00 LEGE 191200Z 19005KT 140V260 9999 FEW040 22/12 Q1010 NOSIG
 
LEAL - Alicante/El Alte, Spain
Distance from station: OSO 344km
Actualización: Sun, 19-May-2024 2:00pm CEST
Muy nuboso
Muy nuboso
 Viento del ESE
Viento: ESE 17 km/h
Temperatura: 22°C
Rocío: 13°C
Humedad: 57%
Barómetro: 1010 hPa
Clouds: Muy nuboso
Visibility: 10 km
Cloud details: Few Clouds 366 m
Parcialmente nuboso 579 m
Muy nuboso 1097 m
2024/05/19 12:00 LEAL 191200Z 11009KT 070V150 9999 FEW012 SCT019 BKN036 22/13 Q1010 NOSIG
LEAM - Almeria Airport, Spain
Distance from station: SSO 56km
Actualización: Sun, 19-May-2024 2:00pm CEST
Despejado
Despejado
 Viento del S
Viento: S 17 km/h
Temperatura: 20°C
Rocío: 15°C
Humedad: 73%
Barómetro: 1009 hPa
Resumen: Despejado
Visibility: greater than 10 km
2024/05/19 12:00 LEAM 191200Z 17009KT CAVOK 20/15 Q1009
 
LEZG - Zaragoza (mil/Ci, Spain
Distance from station: NO 431km
Actualización: Sun, 19-May-2024 2:00pm CEST
Parcialmente nuboso
Parcialmente nuboso
 Viento del N
Viento: N 2 km/h
Temperatura: 20°C
Rocío: 11°C
Humedad: 56%
Barómetro: 1010 hPa
Clouds: Parcialmente nuboso
Visibility: 10 km
Cloud details: Parcialmente nuboso 914 m
2024/05/19 12:00 LEZG 191200Z 35001KT 9999 SCT030 20/11 Q1010 TEMPO 3000 SHRA TS FEW030CB
LEMD - Madrid/Barajas, Spain
Distance from station: ONO 234km
Actualización: Sun, 19-May-2024 2:00pm CEST
Parcialmente nuboso
Parcialmente nuboso
 Viento del SSO
Viento: SSO 11 km/h, Racha: 33 km/h
Temperatura: 20°C
Rocío: 8°C
Humedad: 46%
Barómetro: 1009 hPa
Clouds: Parcialmente nuboso
Visibility: 10 km
Cloud details: Parcialmente nuboso 1829 m
2024/05/19 12:00 LEMD 191200Z 20006G18KT 150V290 9999 SCT060TCU 20/08 Q1009 NOSIG
 
LEGR - Granada Airport, Spain
Distance from station: OSO 62km
Actualización: Sun, 19-May-2024 2:00pm CEST
Few Clouds
Few Clouds
 Viento del O
Viento: O 17 km/h
Temperatura: 23°C
Rocío: 5°C
Humedad: 31%
Barómetro: 1011 hPa
Clouds: Few Clouds
Visibility: 10 km
Cloud details: Few Clouds 1829 m
2024/05/19 12:00 LEGR 191200Z 28009KT 240V330 9999 FEW060 23/05 Q1011
LEMG - Malaga (civ/Mil), Spain
Distance from station: OSO 227km
Actualización: Sun, 19-May-2024 2:00pm CEST
Few Clouds
Few Clouds
 Viento del O
Viento: O 13 km/h
Temperatura: 26°C
Rocío: 3°C
Humedad: 23%
Barómetro: 1009 hPa
Clouds: Few Clouds
Visibility: 10 km
Cloud details: Few Clouds 1829 m
2024/05/19 12:00 LEMG 191200Z 28007KT 210V330 9999 FEW060 26/03 Q1009 NOSIG
 
LEZL - Sevilla (civ/Mil, Spain
Distance from station: S 318km
Actualización: Sun, 19-May-2024 2:00pm CEST
Despejado
Despejado
 Viento del OSO
Viento: OSO 9 km/h, Racha: 30 km/h
Temperatura: 22°C
Rocío: 5°C
Humedad: 33%
Barómetro: 1011 hPa
Resumen: Despejado
Visibility: greater than 10 km
2024/05/19 12:00 LEZL 191200Z 25005G16KT CAVOK 22/05 Q1011 NOSIG
LEVT - Vitoria, Spain
Distance from station: NO 226km
Actualización: Sun, 19-May-2024 2:00pm CEST
Muy nuboso
Muy nuboso
 Viento del NNE
Viento: NNE 7 km/h
Temperatura: 16°C
Rocío: 10°C
Humedad: 68%
Barómetro: 1011 hPa
Clouds: Muy nuboso
Visibility: 10 km
Cloud details: Parcialmente nuboso 762 m
Muy nuboso 1372 m
2024/05/19 12:00 LEVT 191200Z 02004KT 9999 SCT025 BKN045 16/10 Q1011
 
LEBB - Bilbao/Sondica, Spain
Distance from station: NNO 235km
Actualización: Sun, 19-May-2024 2:00pm CEST
Muy nuboso
Muy nuboso
 Viento del ONO
Viento: ONO 15 km/h
Temperatura: 16°C
Rocío: 12°C
Humedad: 77%
Barómetro: 1013 hPa
Clouds: Muy nuboso
Visibility: 10 km
Cloud details: Few Clouds 549 m
Muy nuboso 1036 m
2024/05/19 12:00 LEBB 191200Z 30008KT 260V330 9999 FEW018 BKN034 16/12 Q1013 NOSIG
LESO - San Sebastian/Fu, Spain
Distance from station: N 231km
Actualización: Sun, 19-May-2024 2:00pm CEST
Muy nuboso
Muy nuboso
 Viento del ONO
Viento: ONO 11 km/h
Temperatura: 16°C
Rocío: 13°C
Humedad: 83%
Barómetro: 1012 hPa
Clouds: Muy nuboso
Visibility: 10 km
Cloud details: Few Clouds 305 m
Muy nuboso 518 m
2024/05/19 12:00 LESO 191200Z 29006KT 240V340 9999 FEW010 BKN017 16/13 Q1012
 
LEVD - Valladolid(Mil/C, Spain
Distance from station: ONO 239km
Actualización: Sun, 19-May-2024 2:00pm CEST
Thunderstorm, Few clouds
Thunderstorm, Few clouds
 Viento del NNO
Viento: NNO 15 km/h
Temperatura: 14°C
Rocío: 8°C
Humedad: 67%
Barómetro: 1011 hPa
Resumen: Thunderstorm
Clouds: Few Clouds
Visibility: 10 km
Cloud details: Parcialmente nuboso 610 m
Few Clouds 914 m
2024/05/19 12:00 LEVD 191200Z 33008KT 290V020 9999 TS SCT020 FEW030CB 14/08 Q1011 TEMPO RA
LESA - Salamanca (civ/M, Spain
Distance from station: ONO 349km
Actualización: Sun, 19-May-2024 2:00pm CEST
Muy nuboso
Muy nuboso
 Viento del NO
Viento: NO 9 km/h
Temperatura: 15°C
Rocío: 7°C
Humedad: 59%
Barómetro: 1011 hPa
Clouds: Muy nuboso
Visibility: 10 km
Cloud details: Muy nuboso 914 m
2024/05/19 12:00 LESA 191200Z 32005KT 240V020 9999 BKN030 15/07 Q1011
 
LEXJ - Santander/Paraya, Spain
Distance from station: NNO 247km
Actualización: Sun, 19-May-2024 2:00pm CEST
Parcialmente nuboso
Parcialmente nuboso
 Viento del NNO
Viento: NNO 11 km/h
Temperatura: 16°C
Rocío: 12°C
Humedad: 77%
Barómetro: 1013 hPa
Clouds: Parcialmente nuboso
Visibility: 10 km
Cloud details: Parcialmente nuboso 488 m
Parcialmente nuboso 2286 m
2024/05/19 12:00 LEXJ 191200Z 34006KT 260V020 9999 SCT016 SCT075 16/12 Q1013
LEAS - Asturias/Aviles, Spain
Distance from station: NO 214km
Actualización: Sun, 19-May-2024 2:00pm CEST
Muy nuboso
Muy nuboso
 Viento del NE
Viento: NE 9 km/h
Temperatura: 14°C
Rocío: 12°C
Humedad: 88%
Barómetro: 1013 hPa
Clouds: Muy nuboso
Visibility: 10 km
Cloud details: Parcialmente nuboso 549 m
Parcialmente nuboso 975 m
Few Clouds 1036 m
Muy nuboso 2195 m
2024/05/19 12:00 LEAS 191200Z 05005KT 010V090 9999 SCT018 SCT032 FEW034TCU BKN072 14/12 Q1013 NOSIG
 
LECO - La Coruna/Alvedr, Spain
Distance from station: ONO 222km
Actualización: Sun, 19-May-2024 2:00pm CEST
Muy nuboso
Muy nuboso
 Viento del N
Viento: N 17 km/h
Temperatura: 15°C
Rocío: 12°C
Humedad: 82%
Barómetro: 1014 hPa
Clouds: Muy nuboso
Visibility: 10 km
Cloud details: Muy nuboso 396 m
Muy nuboso 1463 m
2024/05/19 12:00 LECO 191200Z 35009KT 290V060 9999 BKN013 BKN048 15/12 Q1014 TEMPO 3000 SHRA SCT025TCU
LEVX - Vigo/Peinador, Spain
Distance from station: O 214km
Actualización: Sun, 19-May-2024 2:00pm CEST
Muy nuboso
Muy nuboso
 Viento del N
Viento: N 15 km/h
Temperatura: 16°C
Rocío: 10°C
Humedad: 68%
Barómetro: 1014 hPa
Clouds: Muy nuboso
Visibility: 10 km
Cloud details: Few Clouds 732 m
Parcialmente nuboso 853 m
Muy nuboso 1524 m
2024/05/19 12:00 LEVX 191200Z 35008KT 300V030 9999 FEW024 SCT028 BKN050 16/10 Q1014 NOSIG